100LL.CA
Aviation Fuel Pricing for Canadians
Please upgrade your browser - Tested with IE9, FireFox, Chrome, Safari

Fuel Airports Other Help
Prices Economy Info List METAR/TAF Kneeboard Help

Reference Airport: HALIFAX STANFIELD INTL, NS
N 44 52 47  W 063 30 37
Provinces to show:

CYHZ HALIFAX STANFIELD INTL, NS
WEATHER
METARCYHZ 230300Z 32007KT 15SM OVC012 M03/M04 A2970 RMK SC8 SLP069
TAFTAF CYHZ 230240Z 2303/2324 33008KT P6SM OVC010 TEMPO 2303/2309 FEW010 PROB30 2303/2309 2SM BR BKN008 FM230900 20005KT P6SM FEW008 PROB30 2309/2313 1SM BR FM231300 21006KT P6SM BKN010 BKN080 FM231600 20008KT 5SM -SHRA BR BKN010 OVC070 FM232200 16008KT 4SM -RA BR BKN010 OVC040 RMK NXT FCST BY 230600Z
OTHER SITES

FlightAware

FltPlan

Google Maps

SkyVector
FUEL
FBO 100LL
member
100LL
public
JETA MOGAS
Shell Aerocentre (2019-01-14)2.120
Pal Aviation Services (2019-01-18)1.495
Gateway (2019-01-29)2.5301.513
Canada Flight Supplement - CYHZ
(opens in new tab/window)


Please Send Updates!

Desktop Version ]  [ Mobile Version ]  [ Disclaimer ]